Time;durP1;ratioP1;P1;durP2;ratioP2;P2;SDS_P1;SDS_P2;PMS_P1;PMS_P2;Temp;Humidity;BMP_temperature;BMP_pressure;BME280_temperature;BME280_humidity;BME280_pressure;Samples;Min_cycle;Max_cycle;Signal;HPM_P1;HPM_P2
2023/02/15 00:05:31;;;;;;;20.17;11.15;;;4.20;45.30;;;;;;20675881;28;20387;-42
2023/02/15 00:15:51;;;;;;;15.00;8.90;;;3.80;51.70;;;;;;20641705;28;20111;-42
2023/02/15 00:26:13;;;;;;;15.10;7.25;;;4.00;51.00;;;;;;20657406;28;20100;-41
2023/02/15 00:36:14;;;;;;;20.63;10.73;;;3.80;50.80;;;;;;20680052;28;20071;-42
2023/02/15 00:46:16;;;;;;;13.70;7.65;;;3.80;56.40;;;;;;20596605;28;20038;-41
2023/02/15 00:56:18;;;;;;;13.98;6.63;;;3.70;54.10;;;;;;20603240;28;20038;-42
2023/02/15 01:06:19;;;;;;;9.55;5.25;;;3.70;46.60;;;;;;20640952;28;20050;-42
2023/02/15 01:16:21;;;;;;;11.65;6.15;;;3.50;44.60;;;;;;20656359;28;20053;-42
2023/02/15 01:26:23;;;;;;;16.92;7.90;;;3.50;49.60;;;;;;20619758;28;20034;-42
2023/02/15 01:36:24;;;;;;;18.05;8.38;;;3.40;46.00;;;;;;20636446;28;20061;-42
2023/02/15 01:46:34;;;;;;;11.90;6.97;;;3.30;52.90;;;;;;20637951;28;20041;-42
2023/02/15 01:56:39;;;;;;;17.67;9.77;;;3.20;65.60;;;;;;20591760;28;20038;-42
2023/02/15 02:07:00;;;;;;;14.38;7.97;;;3.30;63.20;;;;;;20524422;28;20103;-41
2023/02/15 02:17:29;;;;;;;18.05;8.73;;;3.20;61.10;;;;;;20638705;28;20061;-41
2023/02/15 02:27:42;;;;;;;11.68;7.53;;;3.20;66.00;;;;;;20634713;28;21535;-42
2023/02/15 02:38:05;;;;;;;14.82;8.43;;;3.10;68.10;;;;;;20628410;28;20162;-42
2023/02/15 02:48:13;;;;;;;10.80;6.65;;;3.20;69.70;;;;;;20637793;28;20572;-42
2023/02/15 02:58:34;;;;;;;20.70;8.77;;;3.10;69.80;;;;;;20631432;28;20540;-42
2023/02/15 03:08:46;;;;;;;13.05;7.28;;;3.00;73.40;;;;;;20662321;28;20037;-42
2023/02/15 03:19:24;;;;;;;10.63;8.02;;;3.00;93.20;;;;;;20630715;28;20136;-42
2023/02/15 03:29:49;;;;;;;15.50;7.97;;;3.10;99.90;;;;;;20640179;28;20034;-42
2023/02/15 03:41:09;;;;;;;17.92;8.55;;;3.20;96.10;;;;;;20589339;28;21215;-42
2023/02/15 04:11:31;;;;;;;18.85;8.93;;;2.90;92.10;;;;;;20588889;28;20160;-42
2023/02/15 04:32:28;;;;;;;19.85;10.98;;;2.70;95.70;;;;;;20646400;28;20438;-42
2023/02/15 04:42:49;;;;;;;18.83;10.50;;;2.80;99.90;;;;;;20673946;28;20099;-42
2023/02/15 04:53:11;;;;;;;18.40;9.13;;;3.20;99.90;;;;;;20604656;28;20180;-42
2023/02/15 05:03:32;;;;;;;14.38;9.25;;;3.40;99.90;;;;;;20579606;28;20046;-42
2023/02/15 05:13:53;;;;;;;24.17;9.45;;;3.50;99.90;;;;;;20654477;28;20125;-42
2023/02/15 05:34:53;;;;;;;18.27;10.52;;;3.50;99.90;;;;;;20700416;28;20038;-42
2023/02/15 05:45:15;;;;;;;16.77;10.43;;;3.50;99.90;;;;;;20661670;28;20566;-42
2023/02/15 05:55:40;;;;;;;20.95;10.88;;;3.50;99.90;;;;;;20643928;28;20124;-42
2023/02/15 06:05:47;;;;;;;15.05;8.77;;;3.40;99.90;;;;;;20615598;28;20040;-42
2023/02/15 06:16:08;;;;;;;16.17;8.82;;;3.30;99.90;;;;;;20662113;28;20080;-42
2023/02/15 06:26:29;;;;;;;17.70;9.93;;;3.20;99.90;;;;;;20646520;28;20794;-42
2023/02/15 06:36:50;;;;;;;21.90;9.35;;;3.10;99.90;;;;;;20621746;28;20181;-42
2023/02/15 06:47:11;;;;;;;20.45;10.82;;;3.10;99.90;;;;;;20574288;28;20151;-42
2023/02/15 06:57:33;;;;;;;16.10;10.30;;;3.10;99.90;;;;;;20647101;28;20127;-42
2023/02/15 07:07:53;;;;;;;19.92;9.90;;;3.10;99.90;;;;;;20663703;28;20084;-42
2023/02/15 07:18:14;;;;;;;18.58;9.18;;;3.00;99.90;;;;;;20633017;28;20298;-42
2023/02/15 07:28:36;;;;;;;27.92;12.02;;;3.10;99.90;;;;;;20645451;28;20091;-42
2023/02/15 07:38:57;;;;;;;23.08;12.00;;;3.00;99.90;;;;;;20645097;28;20050;-42
2023/02/15 07:49:18;;;;;;;21.63;11.00;;;3.10;99.90;;;;;;20659720;28;20038;-42
2023/02/15 07:59:39;;;;;;;32.70;13.48;;;3.20;99.90;;;;;;20651515;28;20100;-42
2023/02/15 08:10:00;;;;;;;24.83;12.05;;;3.30;99.90;;;;;;20659299;28;20038;-42
2023/02/15 08:20:21;;;;;;;21.98;11.20;;;3.50;99.90;;;;;;20640986;28;20567;-42
2023/02/15 08:30:42;;;;;;;26.95;14.82;;;3.80;99.90;;;;;;20656060;28;20556;-42
2023/02/15 08:41:10;;;;;;;21.23;12.82;;;4.10;99.90;;;;;;20689193;28;20152;-42
2023/02/15 08:51:36;;;;;;;20.10;11.55;;;4.40;99.90;;;;;;20652530;28;20490;-42
2023/02/15 09:01:57;;;;;;;24.10;11.10;;;4.70;99.90;;;;;;20667392;28;20038;-42
2023/02/15 09:12:18;;;;;;;21.33;10.60;;;5.00;77.60;;;;;;20660978;28;20097;-42
2023/02/15 09:22:39;;;;;;;22.40;12.93;;;5.20;61.70;;;;;;20657432;28;20062;-42
2023/02/15 09:33:00;;;;;;;20.55;12.00;;;5.50;47.80;;;;;;20680088;28;20678;-42
2023/02/15 09:43:35;;;;;;;25.33;11.00;;;5.60;35.50;;;;;;20663280;28;20456;-42
2023/02/15 09:54:08;;;;;;;24.65;12.02;;;5.80;36.20;;;;;;20668892;28;20120;-42
2023/02/15 10:05:00;;;;;;;19.38;11.82;;;6.20;29.90;;;;;;20674234;28;20070;-42
2023/02/15 10:15:29;;;;;;;20.63;10.90;;;6.70;21.40;;;;;;20665810;28;20571;-42
2023/02/15 10:26:17;;;;;;;18.33;10.63;;;7.10;16.90;;;;;;20650909;28;20034;-42
2023/02/15 10:36:57;;;;;;;22.37;12.33;;;7.70;10.70;;;;;;20651866;28;20045;-42
2023/02/15 10:47:30;;;;;;;14.38;8.27;;;8.20;6.10;;;;;;20642622;28;20096;-43
2023/02/15 10:58:28;;;;;;;15.07;9.48;;;8.80;5.20;;;;;;20667935;28;20031;-42
2023/02/15 11:08:59;;;;;;;22.52;9.95;;;8.80;1.00;;;;;;20642973;28;20053;-42
2023/02/15 11:19:32;;;;;;;17.40;10.07;;;8.90;1.40;;;;;;20648786;28;20050;-42
2023/02/15 11:30:28;;;;;;;24.08;10.23;;;9.30;1.00;;;;;;20667031;28;20089;-42
2023/02/15 11:40:56;;;;;;;17.70;9.43;;;9.90;1.00;;;;;;20631412;28;20513;-42
2023/02/15 11:51:19;;;;;;;19.20;11.10;;;10.30;1.00;;;;;;20665414;28;20422;-43
2023/02/15 12:01:43;;;;;;;20.45;10.18;;;10.60;1.00;;;;;;20674338;28;20505;-42
2023/02/15 12:12:25;;;;;;;21.08;9.90;;;11.10;1.00;;;;;;20676409;28;20556;-43
2023/02/15 12:22:53;;;;;;;21.92;11.43;;;11.30;1.00;;;;;;20653604;28;20100;-43
2023/02/15 12:33:36;;;;;;;22.92;11.52;;;11.60;1.00;;;;;;20666239;28;20093;-42
2023/02/15 12:44:18;;;;;;;22.17;12.35;;;12.20;1.00;;;;;;20669559;28;20132;-43
2023/02/15 12:54:42;;;;;;;19.70;10.65;;;12.80;1.00;;;;;;20693635;28;20042;-43
2023/02/15 13:05:38;;;;;;;20.42;11.38;;;13.50;1.00;;;;;;20659598;28;20047;-43
2023/02/15 13:16:04;;;;;;;16.52;10.63;;;12.70;1.00;;;;;;20676241;28;20129;-43
2023/02/15 13:26:29;;;;;;;16.02;10.80;;;12.40;1.00;;;;;;20676178;28;20050;-42
2023/02/15 13:37:19;;;;;;;19.90;9.57;;;12.00;1.00;;;;;;20641420;28;20046;-43
2023/02/15 13:47:58;;;;;;;14.13;9.32;;;12.10;1.00;;;;;;20677312;28;20042;-42
2023/02/15 13:58:38;;;;;;;19.83;10.95;;;11.90;1.00;;;;;;20677974;28;20087;-43
2023/02/15 14:09:08;;;;;;;18.55;9.98;;;11.70;1.00;;;;;;20654074;28;20061;-42
2023/02/15 14:19:49;;;;;;;21.25;11.02;;;11.40;1.00;;;;;;20643858;28;20065;-43
2023/02/15 14:30:43;;;;;;;16.95;9.77;;;11.30;1.00;;;;;;20647505;28;20066;-42
2023/02/15 14:41:17;;;;;;;22.85;11.05;;;11.40;1.00;;;;;;20649759;28;20073;-42
2023/02/15 14:51:56;;;;;;;16.20;9.27;;;11.70;1.00;;;;;;20681805;28;20565;-42
2023/02/15 15:02:44;;;;;;;21.85;10.45;;;12.10;1.00;;;;;;20638359;28;20335;-43
2023/02/15 15:13:38;;;;;;;20.33;10.82;;;11.50;1.00;;;;;;20639793;28;20520;-42
2023/02/15 15:23:59;;;;;;;18.88;10.65;;;11.30;1.00;;;;;;20612692;28;20270;-42
2023/02/15 15:35:01;;;;;;;17.05;8.88;;;11.10;1.00;;;;;;20638066;28;20121;-42
2023/02/15 15:45:45;;;;;;;19.45;10.93;;;10.80;1.00;;;;;;20637848;28;20149;-42
2023/02/15 15:56:11;;;;;;;27.73;11.63;;;10.70;1.00;;;;;;20635064;28;20038;-42
2023/02/15 16:06:38;;;;;;;28.50;12.98;;;10.60;1.00;;;;;;20638849;28;20253;-42
2023/02/15 16:17:01;;;;;;;25.67;12.93;;;10.50;1.00;;;;;;20641323;28;20153;-42
2023/02/15 16:27:25;;;;;;;34.15;14.93;;;10.40;1.00;;;;;;20663241;28;20656;-42
2023/02/15 16:37:47;;;;;;;25.38;11.00;;;10.20;1.00;;;;;;20659859;28;20124;-43
2023/02/15 16:48:16;;;;;;;28.67;11.65;;;10.00;1.00;;;;;;20653796;28;20108;-42
2023/02/15 16:58:42;;;;;;;25.52;12.80;;;9.80;1.00;;;;;;20649620;28;20128;-42
2023/02/15 17:09:06;;;;;;;27.75;13.10;;;9.80;1.00;;;;;;20649277;28;20065;-42
2023/02/15 17:19:30;;;;;;;17.88;11.63;;;9.50;1.00;;;;;;20616776;28;20069;-42
2023/02/15 17:30:00;;;;;;;21.38;11.00;;;9.50;1.20;;;;;;20617859;28;20125;-42
2023/02/15 17:40:30;;;;;;;21.33;12.27;;;9.50;1.00;;;;;;20601852;28;20094;-42
2023/02/15 17:50:51;;;;;;;21.40;10.40;;;9.40;1.00;;;;;;20636240;28;20058;-42
2023/02/15 18:11:58;;;;;;;19.45;11.75;;;9.20;1.00;;;;;;20599503;28;20140;-42
2023/02/15 18:22:19;;;;;;;19.60;11.77;;;9.30;1.00;;;;;;20599415;28;20123;-42
2023/02/15 18:32:41;;;;;;;22.13;11.13;;;9.20;1.00;;;;;;20598309;28;20037;-42
2023/02/15 18:43:02;;;;;;;27.13;11.40;;;9.10;1.00;;;;;;20587685;28;20045;-42
2023/02/15 18:53:23;;;;;;;21.85;13.63;;;9.10;1.00;;;;;;20602299;28;20255;-42
2023/02/15 19:03:49;;;;;;;22.90;12.25;;;9.10;1.00;;;;;;20591215;28;20117;-42
2023/02/15 19:14:28;;;;;;;22.45;11.68;;;9.00;1.00;;;;;;20601088;28;20555;-42
2023/02/15 19:24:51;;;;;;;24.02;9.90;;;9.00;1.00;;;;;;20596466;28;20293;-42
2023/02/15 19:35:21;;;;;;;20.58;11.98;;;8.90;1.00;;;;;;20593068;28;20127;-42
2023/02/15 19:45:42;;;;;;;19.73;9.98;;;8.80;1.00;;;;;;20594720;28;20061;-42
2023/02/15 19:56:03;;;;;;;22.80;10.63;;;8.70;1.00;;;;;;20616285;28;20440;-42
2023/02/15 20:06:24;;;;;;;26.23;13.07;;;8.50;1.00;;;;;;20616070;28;20215;-42
2023/02/15 20:16:47;;;;;;;23.40;10.07;;;8.50;1.00;;;;;;20633288;28;20033;-42
2023/02/15 20:27:15;;;;;;;21.58;10.75;;;8.30;1.00;;;;;;20627327;28;20042;-42
2023/02/15 20:37:36;;;;;;;23.48;11.75;;;8.30;1.00;;;;;;20615017;28;20127;-42
2023/02/15 20:48:00;;;;;;;21.17;12.27;;;8.20;1.00;;;;;;20615133;28;20129;-42
2023/02/15 20:58:27;;;;;;;28.00;13.20;;;8.10;1.00;;;;;;20618623;28;20125;-42
2023/02/15 21:08:48;;;;;;;23.70;12.90;;;8.00;1.00;;;;;;20613636;28;20075;-42
2023/02/15 21:19:21;;;;;;;21.98;9.93;;;7.90;1.00;;;;;;20602912;28;20477;-42
2023/02/15 21:29:42;;;;;;;18.83;10.73;;;7.90;1.00;;;;;;20598539;28;20392;-42
2023/02/15 21:40:05;;;;;;;23.67;11.45;;;7.80;1.00;;;;;;20609981;28;20131;-42
2023/02/15 22:01:26;;;;;;;19.65;10.77;;;7.40;1.00;;;;;;20590812;28;20038;-42
2023/02/15 22:11:48;;;;;;;18.30;10.00;;;7.30;1.00;;;;;;20625170;28;20490;-42
2023/02/15 22:22:09;;;;;;;20.27;12.50;;;7.20;1.00;;;;;;20603315;28;20042;-42
2023/02/15 22:32:30;;;;;;;20.10;9.98;;;7.00;1.00;;;;;;20622543;28;20171;-42
2023/02/15 22:42:53;;;;;;;22.35;11.55;;;7.00;1.00;;;;;;20617996;28;20057;-42
2023/02/15 22:53:14;;;;;;;18.25;11.07;;;7.00;1.20;;;;;;20600596;28;20116;-42
2023/02/15 23:03:35;;;;;;;23.50;12.80;;;6.70;3.80;;;;;;20619338;28;20042;-41
2023/02/15 23:13:56;;;;;;;28.15;14.55;;;6.60;6.00;;;;;;20617642;28;21003;-42
2023/02/15 23:24:23;;;;;;;20.92;12.07;;;6.50;8.20;;;;;;20630758;28;20054;-42
2023/02/15 23:34:44;;;;;;;19.67;11.48;;;6.60;10.30;;;;;;20609310;28;20715;-41
2023/02/15 23:45:19;;;;;;;21.58;12.10;;;6.60;9.20;;;;;;20603992;28;20115;-41
2023/02/15 23:55:43;;;;;;;26.60;13.48;;;6.50;12.10;;;;;;20601891;28;20417;-41
